Time;durP1;ratioP1;P1;durP2;ratioP2;P2;SDS_P1;SDS_P2;PMS_P1;PMS_P2;Temp;Humidity;BMP_temperature;BMP_pressure;BME280_temperature;BME280_humidity;BME280_pressure;Samples;Min_cycle;Max_cycle;Signal;HPM_P1;HPM_P2
2024/02/07 00:02:15;;;;;;;0.15;0.15;;;;;;;8.69;74.66;100572.16;5073680;28;20032;-81
2024/02/07 00:04:41;;;;;;;0.20;0.20;;;;;;;8.67;74.50;100559.00;5069021;28;20028;-80
2024/02/07 00:07:07;;;;;;;0.10;0.10;;;;;;;8.53;75.23;100553.06;5073404;28;20040;-80
2024/02/07 00:09:33;;;;;;;0.17;0.17;;;;;;;8.53;75.09;100545.13;5071468;28;20112;-80
2024/02/07 00:12:00;;;;;;;0.10;0.10;;;;;;;8.53;74.98;100550.41;5073993;28;20024;-80
2024/02/07 00:14:26;;;;;;;0.10;0.10;;;;;;;8.57;75.16;100554.72;5077702;28;20030;-80
2024/02/07 00:16:52;;;;;;;0.17;0.17;;;;;;;8.63;75.00;100559.91;5070910;28;20031;-77
2024/02/07 00:19:18;;;;;;;0.20;0.20;;;;;;;8.59;74.69;100560.88;5067176;28;20081;-81
2024/02/07 00:21:44;;;;;;;0.10;0.10;;;;;;;8.60;75.08;100565.25;5069992;28;20059;-80
2024/02/07 00:24:11;;;;;;;0.20;0.20;;;;;;;8.59;74.75;100560.88;5067182;28;20025;-79
2024/02/07 00:26:38;;;;;;;0.10;0.10;;;;;;;8.60;74.56;100557.34;5070644;28;20032;-80
2024/02/07 00:29:04;;;;;;;0.15;0.15;;;;;;;8.57;74.60;100562.66;5074157;28;20119;-80
2024/02/07 00:31:30;;;;;;;0.10;0.10;;;;;;;8.59;74.67;100558.22;5072865;28;20029;-80
2024/02/07 00:33:56;;;;;;;0.20;0.20;;;;;;;8.56;74.94;100548.59;5070708;28;20033;-79
2024/02/07 00:36:22;;;;;;;0.10;0.10;;;;;;;8.58;74.96;100559.13;5068563;28;20051;-79
2024/02/07 00:38:49;;;;;;;0.10;0.10;;;;;;;8.62;74.86;100559.94;5072895;28;20100;-80
2024/02/07 00:41:23;;;;;;;0.20;0.20;;;;;;;8.67;74.78;100563.38;5071718;28;20633;-80
2024/02/07 00:43:50;;;;;;;0.10;0.10;;;;;;;8.63;74.93;100564.34;5069453;28;20037;-80
2024/02/07 00:46:17;;;;;;;0.10;0.10;;;;;;;8.62;75.19;100558.16;5067943;28;20032;-79
2024/02/07 00:48:44;;;;;;;0.10;0.10;;;;;;;8.55;74.83;100559.19;5073547;28;20051;-80
2024/02/07 00:51:10;;;;;;;0.10;0.10;;;;;;;8.51;74.90;100558.38;5071389;28;20040;-80
2024/02/07 00:53:37;;;;;;;0.17;0.17;;;;;;;8.47;75.09;100551.38;5070354;28;20040;-80
2024/02/07 00:56:03;;;;;;;0.10;0.10;;;;;;;8.34;75.35;100550.66;5072394;28;20027;-79
2024/02/07 00:58:30;;;;;;;0.10;0.10;;;;;;;8.46;75.26;100544.38;5070335;28;20028;-79
2024/02/07 01:00:56;;;;;;;0.13;0.13;;;;;;;8.41;75.16;100546.16;5072212;28;20032;-79
2024/02/07 01:03:23;;;;;;;1.13;1.13;;;;;;;8.44;75.30;100543.47;5070825;28;20025;-80
2024/02/07 01:05:50;;;;;;;0.10;0.10;;;;;;;8.29;75.08;100539.31;5066168;28;20033;-80
2024/02/07 01:08:16;;;;;;;0.17;0.17;;;;;;;8.26;75.01;100558.72;5071070;28;20186;-79
2024/02/07 01:10:44;;;;;;;0.10;0.10;;;;;;;8.23;75.21;100564.03;5069992;28;20127;-80
2024/02/07 01:13:11;;;;;;;0.20;0.20;;;;;;;8.12;75.07;100560.66;5071549;28;20036;-81
2024/02/07 01:15:37;;;;;;;0.10;0.10;;;;;;;8.15;75.05;100563.28;5071404;28;20055;-80
2024/02/07 01:18:04;;;;;;;0.10;0.10;;;;;;;8.15;74.46;100565.91;5070790;28;20024;-80
2024/02/07 01:20:30;;;;;;;0.10;0.10;;;;;;;8.09;74.56;100561.59;5069052;28;20032;-80
2024/02/07 01:22:56;;;;;;;0.20;0.20;;;;;;;8.13;74.40;100561.56;5077420;28;20039;-80
2024/02/07 01:25:25;;;;;;;0.20;0.20;;;;;;;7.99;75.11;100554.69;5080450;28;20040;-81
2024/02/07 01:27:52;;;;;;;0.20;0.20;;;;;;;8.06;74.24;100556.38;5069260;28;20037;-79
2024/02/07 01:30:20;;;;;;;0.10;0.10;;;;;;;8.00;74.81;100556.47;5064203;28;20041;-80
2024/02/07 01:32:46;;;;;;;0.20;0.20;;;;;;;8.00;74.60;100567.00;5067134;28;20063;-80
2024/02/07 01:35:13;;;;;;;0.17;0.17;;;;;;;8.01;74.79;100565.22;5067704;28;20499;-80
2024/02/07 01:37:40;;;;;;;1.75;1.38;;;;;;;8.00;74.40;100567.00;5068693;28;20127;-80
2024/02/07 01:40:09;;;;;;;0.20;0.20;;;;;;;8.00;74.11;100566.13;5069769;28;20547;-80
2024/02/07 01:42:36;;;;;;;0.20;0.20;;;;;;;7.94;74.24;100569.72;5070782;28;20040;-80
2024/02/07 01:45:28;;;;;;;0.20;0.20;;;;;;;7.99;74.71;100570.53;5074964;28;20135;-79
2024/02/07 01:47:55;;;;;;;0.15;0.15;;;;;;;7.89;74.31;100566.28;5071770;28;20483;-79
2024/02/07 01:50:22;;;;;;;0.10;0.10;;;;;;;7.94;74.46;100567.09;5071367;28;20059;-80
2024/02/07 01:52:52;;;;;;;0.10;0.10;;;;;;;7.95;75.05;100568.84;5071927;28;20043;-80
2024/02/07 01:55:18;;;;;;;0.10;0.10;;;;;;;7.96;74.22;100570.56;5064501;28;20043;-80
2024/02/07 01:57:45;;;;;;;0.10;0.10;;;;;;;7.96;74.58;100567.91;5069408;28;20032;-80
2024/02/07 02:00:12;;;;;;;0.10;0.10;;;;;;;7.92;74.32;100571.50;5069778;28;20040;-80
2024/02/07 02:02:39;;;;;;;0.13;0.13;;;;;;;7.87;74.97;100570.69;5070912;28;20376;-80
2024/02/07 02:05:06;;;;;;;0.10;0.10;;;;;;;7.92;74.29;100574.16;5069130;28;20029;-80
2024/02/07 02:07:32;;;;;;;0.10;0.10;;;;;;;7.93;74.72;100573.25;5070649;28;20058;-80
2024/02/07 02:09:59;;;;;;;33.67;2.38;;;;;;;7.78;74.45;100576.97;5073437;28;20024;-79
2024/02/07 02:12:26;;;;;;;0.20;0.20;;;;;;;7.74;75.27;100586.69;5067182;28;20417;-79
2024/02/07 02:14:52;;;;;;;0.10;0.10;;;;;;;7.79;74.50;100581.34;5061474;28;20054;-79
2024/02/07 02:17:18;;;;;;;0.20;0.20;;;;;;;7.80;74.60;100585.75;5067368;28;20081;-80
2024/02/07 02:19:45;;;;;;;0.20;0.20;;;;;;;7.58;74.64;100591.25;5074150;28;20036;-80
2024/02/07 02:22:52;;;;;;;0.15;0.15;;;;;;;7.70;74.67;100590.25;5069150;28;20035;-80
2024/02/07 02:30:50;;;;;;;0.20;0.20;;;;;;;7.45;74.88;100601.09;5071597;28;20554;-83
2024/02/07 02:33:18;;;;;;;0.20;0.20;;;;;;;7.41;74.32;100601.13;5056432;28;20029;-81
2024/02/07 02:35:46;;;;;;;0.20;0.20;;;;;;;7.39;74.02;100606.41;5046439;28;20408;-84
2024/02/07 02:38:14;;;;;;;0.20;0.20;;;;;;;7.36;74.56;100606.44;5053567;28;20685;-82
2024/02/07 02:40:40;;;;;;;0.13;0.13;;;;;;;7.37;74.64;100608.19;5055083;28;20151;-81
2024/02/07 02:43:06;;;;;;;0.10;0.10;;;;;;;7.29;74.08;100608.28;5059030;28;20408;-83
2024/02/07 02:45:33;;;;;;;0.17;0.17;;;;;;;7.27;73.87;100611.81;5054061;28;20071;-83
2024/02/07 02:47:59;;;;;;;0.10;0.10;;;;;;;7.30;73.97;100611.78;5059070;28;20557;-84
2024/02/07 02:50:26;;;;;;;0.20;0.20;;;;;;;7.32;73.76;100615.28;5056912;28;20555;-82
2024/02/07 02:52:52;;;;;;;0.20;0.20;;;;;;;7.26;74.28;100620.59;5045948;28;20045;-84
2024/02/07 02:55:19;;;;;;;0.20;0.20;;;;;;;7.28;74.00;100610.94;5055036;28;20101;-83
2024/02/07 02:57:46;;;;;;;0.10;0.10;;;;;;;7.30;73.70;100617.03;5049369;28;20516;-83
2024/02/07 03:00:14;;;;;;;0.20;0.20;;;;;;;7.20;73.78;100616.28;5062791;28;20025;-80
2024/02/07 03:02:43;;;;;;;0.20;0.20;;;;;;;7.21;73.43;100617.16;5074087;28;20013;-82
2024/02/07 03:08:05;;;;;;;0.10;0.10;;;;;;;7.26;73.78;100617.97;5056589;28;20421;-81
2024/02/07 03:10:33;;;;;;;0.13;0.13;;;;;;;7.18;73.96;100611.88;5056770;28;20036;-82
2024/02/07 03:13:00;;;;;;;0.10;0.10;;;;;;;7.14;73.80;100605.81;5056329;28;20489;-81
2024/02/07 03:15:27;;;;;;;0.13;0.13;;;;;;;7.16;74.07;100617.19;5054329;28;20405;-82
2024/02/07 03:17:53;;;;;;;0.10;0.10;;;;;;;7.11;74.29;100601.41;5058803;28;20085;-81
2024/02/07 03:20:20;;;;;;;0.20;0.20;;;;;;;7.13;73.60;100607.56;5044948;28;20028;-81
2024/02/07 03:22:46;;;;;;;0.15;0.15;;;;;;;7.10;74.03;100606.69;5052120;28;20089;-83
2024/02/07 03:25:16;;;;;;;0.20;0.20;;;;;;;7.10;74.02;100594.41;5049752;28;20456;-82
2024/02/07 03:27:46;;;;;;;0.20;0.20;;;;;;;7.16;73.88;100588.19;5060454;28;20037;-81
2024/02/07 03:30:15;;;;;;;0.10;0.10;;;;;;;7.17;74.00;100589.94;5051674;28;20025;-81
2024/02/07 03:32:44;;;;;;;0.20;0.20;;;;;;;7.17;73.57;100600.50;5056666;28;20123;-81
2024/02/07 03:35:11;;;;;;;0.10;0.10;;;;;;;7.19;73.65;100592.56;5056190;28;20045;-81
2024/02/07 03:37:39;;;;;;;0.20;0.20;;;;;;;7.20;73.57;100584.66;5049921;28;20096;-82
2024/02/07 03:40:12;;;;;;;0.20;0.20;;;;;;;7.22;73.94;100588.13;5050622;28;20392;-81
2024/02/07 03:42:39;;;;;;;0.50;0.50;;;;;;;7.18;73.52;100588.19;5046570;28;20051;-81
2024/02/07 03:45:07;;;;;;;0.10;0.10;;;;;;;7.20;73.43;100586.41;5043996;28;20030;-82
2024/02/07 03:47:34;;;;;;;0.10;0.10;;;;;;;7.20;73.86;100595.22;5034650;28;20033;-81
2024/02/07 03:50:05;;;;;;;0.20;0.20;;;;;;;7.21;73.85;100585.53;5041330;28;20520;-82
2024/02/07 03:52:32;;;;;;;0.10;0.10;;;;;;;7.18;73.85;100581.16;5045812;28;20475;-82
2024/02/07 03:54:58;;;;;;;0.10;0.10;;;;;;;7.20;74.03;100589.03;5028149;28;20031;-82
2024/02/07 03:57:25;;;;;;;0.20;0.20;;;;;;;7.21;73.50;100593.44;5043573;28;20029;-82
2024/02/07 03:59:51;;;;;;;0.10;0.10;;;;;;;7.20;74.02;100595.22;5043701;28;20181;-82
2024/02/07 04:02:21;;;;;;;0.20;0.20;;;;;;;7.08;73.38;100604.09;5040052;28;20020;-82
2024/02/07 04:04:51;;;;;;;0.20;0.20;;;;;;;7.21;73.45;100601.34;5045539;28;20041;-81
2024/02/07 04:07:19;;;;;;;0.10;0.10;;;;;;;7.19;74.06;100597.84;5050881;28;20025;-83
2024/02/07 04:09:46;;;;;;;0.20;0.20;;;;;;;7.19;74.00;100589.94;5045435;28;20064;-82
2024/02/07 05:17:42;;;;;;;0.10;0.10;;;;;;;7.27;74.28;100633.75;5042358;28;20033;-83
2024/02/07 05:20:08;;;;;;;0.10;0.10;;;;;;;7.31;73.82;100634.59;5030565;28;20499;-83
2024/02/07 05:22:34;;;;;;;0.17;0.17;;;;;;;7.27;74.03;100632.91;5026547;28;20029;-83
2024/02/07 05:25:02;;;;;;;0.10;0.10;;;;;;;7.29;74.05;100631.13;5024865;28;20034;-82
2024/02/07 05:27:30;;;;;;;0.10;0.10;;;;;;;7.29;73.90;100631.13;5027047;28;20101;-82
2024/02/07 05:29:56;;;;;;;0.20;0.20;;;;;;;7.28;73.51;100635.50;5025667;28;20496;-82
2024/02/07 05:32:22;;;;;;;0.10;0.10;;;;;;;7.31;74.10;100631.97;5029347;28;20626;-82
2024/02/07 05:34:48;;;;;;;0.15;0.15;;;;;;;7.29;74.02;100629.34;5040236;28;20035;-83
2024/02/07 05:37:15;;;;;;;0.20;0.20;;;;;;;7.31;73.52;100624.06;5056152;28;20089;-81
2024/02/07 05:39:41;;;;;;;0.17;0.17;;;;;;;7.28;74.13;100629.38;5058231;28;20037;-82
2024/02/07 05:42:07;;;;;;;0.10;0.10;;;;;;;7.32;73.45;100636.34;5039810;28;20030;-83
2024/02/07 05:44:33;;;;;;;0.20;0.20;;;;;;;7.32;73.68;100636.34;5035689;28;20063;-82
2024/02/07 05:47:01;;;;;;;0.20;0.20;;;;;;;7.29;73.89;100641.69;5034541;28;20025;-82
2024/02/07 05:49:27;;;;;;;0.17;0.17;;;;;;;7.33;73.35;100647.75;5028989;28;20497;-82
2024/02/07 05:51:57;;;;;;;0.15;0.15;;;;;;;7.36;74.00;100659.16;5038090;28;20228;-84
2024/02/07 05:54:43;;;;;;;0.10;0.10;;;;;;;7.43;73.87;100652.06;5028757;28;20112;-83
2024/02/07 05:57:09;;;;;;;0.10;0.10;;;;;;;7.39;74.04;100659.13;5025156;28;20033;-82
2024/02/07 05:59:35;;;;;;;0.20;0.20;;;;;;;7.36;73.79;100661.78;5025635;28;20021;-83
2024/02/07 06:02:02;;;;;;;0.20;0.20;;;;;;;7.38;73.62;100659.16;5023957;28;20547;-82
2024/02/07 06:04:28;;;;;;;0.20;0.20;;;;;;;7.38;74.13;100657.38;5023267;28;20037;-83
2024/02/07 06:06:54;;;;;;;0.10;0.10;;;;;;;7.43;73.81;100671.38;5025031;28;20111;-81
2024/02/07 06:09:20;;;;;;;0.10;0.10;;;;;;;7.44;74.04;100667.88;5025429;28;20405;-83
2024/02/07 06:11:47;;;;;;;0.10;0.10;;;;;;;7.44;74.01;100673.13;5030444;28;20489;-82
2024/02/07 06:14:15;;;;;;;0.10;0.10;;;;;;;7.48;73.63;100663.44;5032724;28;20052;-82
2024/02/07 06:16:41;;;;;;;0.13;0.13;;;;;;;7.51;74.01;100668.66;5032950;28;20116;-84
2024/02/07 06:19:07;;;;;;;0.10;0.10;;;;;;;7.53;73.67;100658.13;5033471;28;20083;-84
2024/02/07 06:21:33;;;;;;;0.10;0.10;;;;;;;7.56;74.17;100656.34;5033477;28;20033;-83
2024/02/07 06:23:59;;;;;;;0.10;0.10;;;;;;;7.59;73.59;100660.69;5033386;28;20084;-83
2024/02/07 06:26:26;;;;;;;0.17;0.17;;;;;;;7.63;74.19;100666.78;5050764;28;20154;-85
2024/02/07 06:28:52;;;;;;;0.10;0.10;;;;;;;7.66;73.63;100672.06;5042245;28;20069;-82
2024/02/07 06:31:19;;;;;;;0.10;0.10;;;;;;;7.69;74.29;100675.53;5037504;28;20030;-84
2024/02/07 06:33:45;;;;;;;0.10;0.10;;;;;;;7.70;73.69;100679.03;5046318;28;20032;-84
2024/02/07 06:36:11;;;;;;;0.20;0.20;;;;;;;7.71;73.79;100671.13;5035989;28;20462;-85
2024/02/07 06:38:37;;;;;;;0.20;0.20;;;;;;;7.70;73.60;100674.66;5035133;28;20440;-83
2024/02/07 06:41:04;;;;;;;0.10;0.10;;;;;;;7.72;74.23;100671.97;5036952;28;20021;-84
2024/02/07 06:43:30;;;;;;;0.10;0.10;;;;;;;7.72;74.17;100672.84;5029570;28;20055;-83
2024/02/07 06:45:57;;;;;;;0.10;0.10;;;;;;;7.71;73.55;100671.13;5021379;28;20344;-83
2024/02/07 06:48:23;;;;;;;0.20;0.20;;;;;;;7.73;74.20;100669.31;5023493;28;20055;-83
2024/02/07 06:50:50;;;;;;;0.10;0.10;;;;;;;7.77;74.19;100670.16;5023949;28;20134;-84
2024/02/07 06:53:17;;;;;;;0.13;0.13;;;;;;;7.80;74.34;100666.63;5033781;28;20017;-83
2024/02/07 06:55:43;;;;;;;0.10;0.10;;;;;;;7.81;73.86;100678.91;5057959;28;20017;-83
2024/02/07 06:58:09;;;;;;;0.10;0.10;;;;;;;7.84;73.51;100677.13;5047712;28;20038;-83
2024/02/07 07:00:35;;;;;;;0.20;0.20;;;;;;;7.84;74.16;100674.47;5044086;28;20052;-83
2024/02/07 07:03:02;;;;;;;0.10;0.10;;;;;;;7.86;74.07;100687.66;5030706;28;20416;-84
2024/02/07 07:05:28;;;;;;;0.20;0.20;;;;;;;7.89;73.59;100695.53;5025259;28;20029;-83
2024/02/07 07:07:54;;;;;;;0.17;0.17;;;;;;;7.89;74.07;100685.84;5025283;28;20040;-84
2024/02/07 07:10:20;;;;;;;0.10;0.10;;;;;;;7.92;73.71;100690.22;5024551;28;20025;-83
2024/02/07 07:12:46;;;;;;;0.10;0.10;;;;;;;7.91;74.06;100693.75;5027235;28;20117;-84
2024/02/07 07:15:13;;;;;;;0.13;0.13;;;;;;;7.91;73.61;100704.28;5026785;28;20017;-84
2024/02/07 07:17:40;;;;;;;0.17;0.17;;;;;;;7.91;73.56;100713.09;5027869;28;20030;-82
2024/02/07 07:20:06;;;;;;;0.40;0.40;;;;;;;7.90;73.82;100713.09;5033440;28;20030;-82
2024/02/07 07:22:33;;;;;;;0.17;0.17;;;;;;;7.92;74.02;100716.59;5039962;28;20034;-85
2024/02/07 07:24:59;;;;;;;2.28;2.08;;;;;;;7.93;73.73;100719.22;5034171;28;20022;-84
2024/02/07 07:27:25;;;;;;;0.20;0.20;;;;;;;7.95;73.65;100721.84;5031296;28;20030;-83
2024/02/07 07:29:51;;;;;;;0.10;0.10;;;;;;;7.99;73.65;100727.94;5031301;28;20038;-82
2024/02/07 07:32:17;;;;;;;0.10;0.10;;;;;;;8.02;73.74;100730.56;5030703;28;20033;-83
2024/02/07 07:34:44;;;;;;;0.10;0.10;;;;;;;8.04;74.28;100737.56;5035397;28;20037;-84
2024/02/07 07:37:10;;;;;;;0.20;0.20;;;;;;;8.08;74.26;100739.28;5039494;28;20037;-83
2024/02/07 07:39:36;;;;;;;2.05;1.85;;;;;;;8.10;73.60;100737.50;5033400;28;20033;-83
2024/02/07 07:42:02;;;;;;;0.20;0.20;;;;;;;8.13;73.68;100735.72;5037913;28;20048;-83
2024/02/07 07:44:28;;;;;;;0.10;0.10;;;;;;;8.16;73.92;100735.69;5034605;28;20126;-83
2024/02/07 07:46:54;;;;;;;0.10;0.10;;;;;;;8.17;73.95;100742.72;5036986;28;20051;-85
2024/02/07 07:49:21;;;;;;;1.20;1.20;;;;;;;8.20;73.75;100740.03;5032619;28;20508;-84
2024/02/07 07:51:47;;;;;;;0.10;0.10;;;;;;;8.22;74.08;100747.06;5035009;28;20113;-83
2024/02/07 07:54:13;;;;;;;0.10;0.10;;;;;;;8.23;74.25;100743.50;5030489;28;20067;-84
2024/02/07 07:56:39;;;;;;;0.88;0.88;;;;;;;8.25;74.10;100740.88;5034093;28;20084;-84
2024/02/07 07:59:05;;;;;;;0.20;0.20;;;;;;;8.26;74.14;100737.31;5035419;28;20113;-85
2024/02/07 08:01:31;;;;;;;0.10;0.10;;;;;;;8.26;74.03;100738.19;5041844;28;20033;-84
2024/02/07 08:03:57;;;;;;;0.20;0.20;;;;;;;8.27;74.20;100741.69;5042051;28;20021;-86
2024/02/07 08:06:23;;;;;;;0.10;0.10;;;;;;;8.30;74.19;100738.16;5034213;28;20026;-84
2024/02/07 08:08:50;;;;;;;0.10;0.10;;;;;;;8.34;74.07;100745.16;5040520;28;20241;-83
2024/02/07 08:11:16;;;;;;;0.20;0.20;;;;;;;8.33;73.70;100748.69;5039533;28;20037;-82
2024/02/07 08:13:42;;;;;;;0.10;0.10;;;;;;;8.32;73.74;100755.72;5049731;28;20040;-81
2024/02/07 08:16:08;;;;;;;0.10;0.10;;;;;;;8.28;74.06;100746.09;5051924;28;20037;-83
2024/02/07 08:18:35;;;;;;;0.10;0.10;;;;;;;8.29;73.34;100747.84;5039585;28;20029;-86
2024/02/07 08:21:02;;;;;;;0.10;0.10;;;;;;;8.28;73.86;100743.44;5033883;28;20041;-85
2024/02/07 08:23:29;;;;;;;0.10;0.10;;;;;;;8.27;73.39;100757.53;5032415;28;20034;-85
2024/02/07 08:25:55;;;;;;;0.10;0.10;;;;;;;8.29;73.72;100762.78;5032450;28;20033;-86
2024/02/07 08:28:21;;;;;;;0.10;0.10;;;;;;;8.28;73.67;100777.78;5034612;28;20036;-83
2024/02/07 08:30:47;;;;;;;0.10;0.10;;;;;;;8.31;73.29;100783.03;5034722;28;20060;-85
2024/02/07 08:33:13;;;;;;;0.20;0.20;;;;;;;8.31;73.45;100783.03;5035190;28;20037;-84
2024/02/07 08:35:40;;;;;;;0.10;0.10;;;;;;;8.30;73.20;100776.00;5035098;28;20033;-82
2024/02/07 08:38:06;;;;;;;0.10;0.10;;;;;;;8.34;73.74;100777.69;5035197;28;20083;-85
2024/02/07 08:40:32;;;;;;;0.05;0.05;;;;;;;8.37;73.27;100782.97;5033757;28;20282;-82
2024/02/07 08:42:59;;;;;;;0.17;0.17;;;;;;;8.42;73.67;100783.78;5032599;28;20053;-83
2024/02/07 08:45:25;;;;;;;0.10;0.10;;;;;;;8.46;73.34;100775.78;5032452;28;20029;-83
2024/02/07 08:47:51;;;;;;;0.20;0.20;;;;;;;8.47;73.32;100774.94;5030523;28;20515;-83
2024/02/07 08:50:18;;;;;;;0.10;0.10;;;;;;;8.46;73.34;100776.72;5031374;28;20033;-83
2024/02/07 08:52:45;;;;;;;0.20;0.20;;;;;;;8.46;73.10;100782.00;5030917;28;20390;-83
2024/02/07 08:55:11;;;;;;;0.22;0.22;;;;;;;8.45;72.42;100784.59;5032984;28;20025;-83
2024/02/07 08:57:39;;;;;;;0.10;0.10;;;;;;;8.39;72.38;100786.44;5033461;28;20452;-83
2024/02/07 09:00:08;;;;;;;0.10;0.10;;;;;;;8.39;72.05;100791.72;5032604;28;20026;-84
2024/02/07 09:02:34;;;;;;;0.10;0.10;;;;;;;8.40;72.52;100789.97;5031543;28;20040;-84
2024/02/07 09:05:08;;;;;;;0.10;0.10;;;;;;;8.45;72.16;100800.44;5035118;28;20037;-84
2024/02/07 09:07:34;;;;;;;0.10;0.10;;;;;;;8.51;72.16;100805.69;5032456;28;20097;-84
2024/02/07 09:10:01;;;;;;;0.10;0.10;;;;;;;8.53;72.32;100803.91;5033503;28;20031;-84
2024/02/07 09:12:28;;;;;;;0.73;0.73;;;;;;;8.56;72.09;100807.41;5024116;28;20038;-83
2024/02/07 09:14:56;;;;;;;0.10;0.10;;;;;;;8.61;72.10;100804.72;5030295;28;20036;-84
2024/02/07 09:17:23;;;;;;;0.10;0.10;;;;;;;8.66;71.97;100794.06;5030024;28;20029;-83
2024/02/07 09:19:49;;;;;;;0.10;0.10;;;;;;;8.67;71.28;100786.13;5030890;28;20048;-83
2024/02/07 09:22:16;;;;;;;0.10;0.10;;;;;;;8.71;70.53;100798.41;5033077;28;20439;-85
2024/02/07 09:24:43;;;;;;;0.20;0.20;;;;;;;8.78;71.34;100807.09;5031285;28;20029;-83
2024/02/07 09:27:09;;;;;;;0.20;0.20;;;;;;;8.79;70.55;100806.22;5032805;28;20040;-83
2024/02/07 09:29:36;;;;;;;0.10;0.10;;;;;;;8.83;70.98;100788.56;5029586;28;20335;-84
2024/02/07 09:32:03;;;;;;;0.20;0.20;;;;;;;8.86;70.79;100792.03;5056108;28;20044;-83
2024/02/07 09:34:29;;;;;;;0.85;0.75;;;;;;;8.88;70.33;100794.66;5055072;28;20060;-83
2024/02/07 09:36:55;;;;;;;0.10;0.10;;;;;;;8.93;69.99;100781.38;5046133;28;20033;-83
2024/02/07 09:39:22;;;;;;;0.10;0.10;;;;;;;8.97;69.93;100776.03;5046357;28;20021;-83
2024/02/07 09:41:49;;;;;;;0.13;0.13;;;;;;;9.03;70.58;100783.00;5035571;28;20026;-83
2024/02/07 09:44:18;;;;;;;0.10;0.10;;;;;;;9.06;70.39;100788.25;5034795;28;20030;-83
2024/02/07 09:46:45;;;;;;;0.10;0.10;;;;;;;9.09;69.87;100795.25;5036947;28;20022;-84
2024/02/07 09:49:14;;;;;;;0.20;0.20;;;;;;;9.16;70.03;100802.19;5034264;28;20404;-84
2024/02/07 09:51:41;;;;;;;0.10;0.10;;;;;;;9.17;69.54;100801.28;5051645;28;20031;-83
2024/02/07 09:54:12;;;;;;;0.13;0.13;;;;;;;9.25;70.01;100809.13;5044016;28;20044;-83
2024/02/07 09:56:40;;;;;;;0.15;0.15;;;;;;;9.26;69.61;100798.53;5033231;28;20029;-85
2024/02/07 09:59:09;;;;;;;0.30;0.30;;;;;;;9.29;69.44;100798.47;5032960;28;20492;-84
2024/02/07 10:01:37;;;;;;;0.10;0.10;;;;;;;9.30;68.83;100794.94;5029367;28;20065;-83
2024/02/07 10:04:05;;;;;;;0.10;0.10;;;;;;;9.33;68.79;100794.00;5030400;28;20057;-83
2024/02/07 10:06:32;;;;;;;0.10;0.10;;;;;;;9.33;68.12;100786.97;5031975;28;20037;-83
2024/02/07 10:08:59;;;;;;;0.10;0.10;;;;;;;9.36;68.55;100791.31;5031599;28;20030;-84
2024/02/07 10:11:27;;;;;;;0.10;0.10;;;;;;;9.38;68.31;100785.13;5028121;28;20034;-83
2024/02/07 10:13:53;;;;;;;0.20;0.20;;;;;;;9.37;68.34;100779.81;5029739;28;20049;-83
2024/02/07 10:16:21;;;;;;;0.20;0.20;;;;;;;9.38;68.79;100774.53;5032559;28;20396;-82
2024/02/07 10:18:49;;;;;;;0.10;0.10;;;;;;;9.29;67.10;100779.94;5033345;28;20025;-83
2024/02/07 10:21:16;;;;;;;0.10;0.10;;;;;;;9.34;67.63;100783.38;5032527;28;20034;-83
2024/02/07 10:23:42;;;;;;;0.10;0.10;;;;;;;9.35;67.42;100787.78;5036042;28;20332;-82
2024/02/07 10:26:10;;;;;;;0.10;0.10;;;;;;;9.43;67.50;100789.44;5034530;28;20036;-83
2024/02/07 10:28:37;;;;;;;0.10;0.10;;;;;;;9.48;67.88;100792.88;5036019;28;20037;-83
2024/02/07 10:31:04;;;;;;;0.10;0.10;;;;;;;9.50;67.06;100794.59;5032918;28;20378;-82
2024/02/07 10:33:46;;;;;;;0.10;0.10;;;;;;;9.58;66.14;100797.13;5033305;28;20535;-82
2024/02/07 10:36:13;;;;;;;1.08;1.08;;;;;;;9.55;67.03;100794.53;5032553;28;20033;-83
2024/02/07 10:38:39;;;;;;;0.20;0.20;;;;;;;9.59;67.99;100790.06;5034979;28;20373;-83
2024/02/07 10:41:05;;;;;;;0.20;0.20;;;;;;;9.53;65.41;100791.91;5033497;28;20131;-83
2024/02/07 10:43:35;;;;;;;0.10;0.10;;;;;;;9.59;66.28;100800.66;5031892;28;20038;-82
2024/02/07 10:46:03;;;;;;;0.20;0.20;;;;;;;9.59;64.81;100796.22;5029954;28;20559;-83
2024/02/07 10:48:30;;;;;;;0.15;0.15;;;;;;;9.65;64.98;100793.47;5048635;28;20025;-82
2024/02/07 10:50:57;;;;;;;0.20;0.20;;;;;;;9.67;65.67;100785.50;5050792;28;20033;-82
2024/02/07 10:53:27;;;;;;;0.10;0.10;;;;;;;9.64;63.87;100790.88;5043707;28;20539;-82
2024/02/07 10:55:56;;;;;;;0.10;0.10;;;;;;;9.68;64.18;100787.25;5036302;28;20492;-83
2024/02/07 10:58:24;;;;;;;0.10;0.10;;;;;;;9.75;65.75;100794.19;5036167;28;20033;-83
2024/02/07 11:00:52;;;;;;;0.10;0.10;;;;;;;9.83;66.56;100792.28;5036145;28;20470;-83
2024/02/07 11:03:21;;;;;;;0.10;0.10;;;;;;;9.90;66.12;100786.91;5036920;28;20033;-83
2024/02/07 11:05:48;;;;;;;0.10;0.10;;;;;;;9.95;64.98;100782.38;5039882;28;20072;-83
2024/02/07 11:08:15;;;;;;;0.20;0.20;;;;;;;9.96;63.30;100792.94;5039172;28;20422;-84
2024/02/07 11:10:43;;;;;;;0.17;0.17;;;;;;;9.97;62.80;100783.22;5035434;28;20032;-84
2024/02/07 11:13:10;;;;;;;0.65;0.65;;;;;;;10.01;63.16;100791.06;5040180;28;20044;-84
2024/02/07 11:15:37;;;;;;;0.10;0.10;;;;;;;10.09;65.46;100798.88;5043068;28;20025;-84
2024/02/07 11:18:05;;;;;;;0.10;0.10;;;;;;;10.05;63.84;100797.19;5038031;28;20052;-84
2024/02/07 11:20:32;;;;;;;0.10;0.10;;;;;;;10.13;66.00;100799.69;5035538;28;20044;-84
2024/02/07 11:23:02;;;;;;;0.10;0.10;;;;;;;10.12;64.25;100803.22;5034843;28;20035;-85
2024/02/07 11:25:31;;;;;;;0.10;0.10;;;;;;;10.17;65.06;100801.41;5034974;28;20043;-85
2024/02/07 11:27:57;;;;;;;0.20;0.20;;;;;;;10.23;65.21;100795.09;5030602;28;20033;-84
2024/02/07 11:30:24;;;;;;;0.15;0.15;;;;;;;10.25;62.98;100794.16;5034542;28;20121;-83
2024/02/07 11:32:52;;;;;;;0.10;0.10;;;;;;;10.29;63.22;100785.28;5034915;28;20090;-84
2024/02/07 11:35:20;;;;;;;0.15;0.15;;;;;;;10.34;62.01;100783.41;5035105;28;20049;-84
2024/02/07 11:37:50;;;;;;;0.65;0.65;;;;;;;10.41;62.13;100788.59;5035268;28;20539;-84
2024/02/07 11:40:19;;;;;;;0.10;0.10;;;;;;;10.43;64.31;100790.31;5034237;28;20033;-85
2024/02/07 11:42:45;;;;;;;0.10;0.10;;;;;;;10.49;64.22;100797.25;5034698;28;20029;-84
2024/02/07 11:45:15;;;;;;;0.22;0.22;;;;;;;10.55;63.37;100796.25;5034683;28;20405;-85
2024/02/07 11:47:43;;;;;;;0.10;0.10;;;;;;;10.60;65.17;100800.53;5034071;28;20029;-85
2024/02/07 11:50:14;;;;;;;0.10;0.10;;;;;;;10.71;64.21;100787.09;5035162;28;20025;-84
2024/02/07 11:52:42;;;;;;;0.10;0.10;;;;;;;10.80;62.06;100791.31;5030272;28;20108;-85
2024/02/07 11:55:12;;;;;;;0.10;0.10;;;;;;;10.89;61.30;100782.28;5036690;28;20115;-88
2024/02/07 11:57:41;;;;;;;0.10;0.10;;;;;;;10.90;59.06;100776.06;5034689;28;20040;-86
2024/02/07 12:00:11;;;;;;;0.10;0.10;;;;;;;10.93;59.48;100774.25;5036023;28;20032;-86
2024/02/07 12:02:37;;;;;;;0.10;0.10;;;;;;;10.96;59.64;100768.84;5029828;28;20162;-85
2024/02/07 12:05:06;;;;;;;0.10;0.10;;;;;;;11.00;60.74;100759.94;5050769;28;20097;-86
2024/02/07 12:07:32;;;;;;;0.10;0.10;;;;;;;11.02;59.34;100753.75;5058464;28;20273;-87
2024/02/07 12:09:58;;;;;;;0.10;0.10;;;;;;;11.07;57.64;100755.34;5058766;28;20048;-87
2024/02/07 12:12:24;;;;;;;0.10;0.10;;;;;;;11.16;61.77;100751.63;5054111;28;20085;-86
2024/02/07 12:14:51;;;;;;;0.10;0.10;;;;;;;11.10;56.00;100746.44;5039964;28;20041;-85
2024/02/07 12:17:17;;;;;;;0.10;0.10;;;;;;;11.20;56.11;100747.09;5039631;28;20104;-85
2024/02/07 12:19:44;;;;;;;0.10;0.10;;;;;;;11.27;57.81;100749.56;5038777;28;20033;-85
2024/02/07 12:22:17;;;;;;;0.25;0.25;;;;;;;11.26;54.47;100749.63;5037629;28;20026;-85
2024/02/07 12:24:44;;;;;;;0.30;0.30;;;;;;;11.28;56.10;100742.50;5038703;28;20025;-86
2024/02/07 12:27:13;;;;;;;0.10;0.10;;;;;;;11.21;54.11;100748.84;5038756;28;20036;-86
2024/02/07 12:29:51;;;;;;;0.17;0.17;;;;;;;11.36;56.20;100748.47;5036780;28;20021;-84
2024/02/07 12:32:17;;;;;;;0.10;0.10;;;;;;;11.37;54.56;100746.72;5036691;28;20036;-84
2024/02/07 12:34:45;;;;;;;0.10;0.10;;;;;;;11.45;55.82;100737.63;5038747;28;20029;-85
2024/02/07 12:37:14;;;;;;;0.10;0.10;;;;;;;11.55;56.76;100740.94;5041181;28;20531;-85
2024/02/07 12:39:43;;;;;;;0.90;0.90;;;;;;;11.56;54.87;100729.38;5038526;28;20029;-87
2024/02/07 12:42:19;;;;;;;0.10;0.10;;;;;;;11.71;56.09;100727.25;5038274;28;20029;-86
2024/02/07 12:44:48;;;;;;;0.10;0.10;;;;;;;11.54;52.64;100727.69;5037218;28;20025;-85
2024/02/07 12:47:15;;;;;;;0.10;0.10;;;;;;;11.55;52.58;100719.72;5036036;28;20033;-85